sensor_id;sensor_type;location;lat;lon;timestamp;P1;durP1;ratioP1;P2;durP2;ratioP2
55762;SDS011;42162;51.958;5.426;2024-01-30T00:02:01;12.70;;;8.63;;
55762;SDS011;42162;51.958;5.426;2024-01-30T00:04:28;20.25;;;10.23;;
55762;SDS011;42162;51.958;5.426;2024-01-30T00:06:56;13.80;;;9.57;;
55762;SDS011;42162;51.958;5.426;2024-01-30T00:09:23;13.77;;;9.25;;
55762;SDS011;42162;51.958;5.426;2024-01-30T00:11:50;13.25;;;8.68;;
55762;SDS011;42162;51.958;5.426;2024-01-30T00:14:18;14.60;;;10.43;;
55762;SDS011;42162;51.958;5.426;2024-01-30T00:16:45;14.93;;;9.30;;
55762;SDS011;42162;51.958;5.426;2024-01-30T00:19:12;13.07;;;8.35;;
55762;SDS011;42162;51.958;5.426;2024-01-30T00:21:40;13.18;;;8.65;;
55762;SDS011;42162;51.958;5.426;2024-01-30T00:24:07;11.57;;;9.18;;
55762;SDS011;42162;51.958;5.426;2024-01-30T00:26:34;11.77;;;8.68;;
55762;SDS011;42162;51.958;5.426;2024-01-30T00:29:02;13.30;;;8.75;;
55762;SDS011;42162;51.958;5.426;2024-01-30T00:31:29;11.45;;;9.30;;
55762;SDS011;42162;51.958;5.426;2024-01-30T00:33:56;14.77;;;9.23;;
55762;SDS011;42162;51.958;5.426;2024-01-30T00:36:24;16.52;;;11.48;;
55762;SDS011;42162;51.958;5.426;2024-01-30T00:38:51;9.98;;;8.98;;
55762;SDS011;42162;51.958;5.426;2024-01-30T00:41:18;12.35;;;9.00;;
55762;SDS011;42162;51.958;5.426;2024-01-30T00:43:46;10.43;;;8.07;;
55762;SDS011;42162;51.958;5.426;2024-01-30T00:46:13;12.00;;;8.88;;
55762;SDS011;42162;51.958;5.426;2024-01-30T00:48:40;15.32;;;9.18;;
55762;SDS011;42162;51.958;5.426;2024-01-30T00:51:08;10.85;;;8.25;;
55762;SDS011;42162;51.958;5.426;2024-01-30T00:53:35;13.63;;;9.65;;
55762;SDS011;42162;51.958;5.426;2024-01-30T00:56:02;10.95;;;9.45;;
55762;SDS011;42162;51.958;5.426;2024-01-30T00:58:30;12.10;;;9.27;;
55762;SDS011;42162;51.958;5.426;2024-01-30T01:00:57;13.35;;;9.82;;
55762;SDS011;42162;51.958;5.426;2024-01-30T01:03:24;12.20;;;7.75;;
55762;SDS011;42162;51.958;5.426;2024-01-30T01:05:52;10.40;;;7.70;;
55762;SDS011;42162;51.958;5.426;2024-01-30T01:08:19;11.18;;;8.40;;
55762;SDS011;42162;51.958;5.426;2024-01-30T01:10:47;11.13;;;8.38;;
55762;SDS011;42162;51.958;5.426;2024-01-30T01:13:14;14.88;;;9.20;;
55762;SDS011;42162;51.958;5.426;2024-01-30T01:15:42;16.38;;;8.73;;
55762;SDS011;42162;51.958;5.426;2024-01-30T01:18:10;14.38;;;8.98;;
55762;SDS011;42162;51.958;5.426;2024-01-30T01:20:37;12.90;;;9.27;;
55762;SDS011;42162;51.958;5.426;2024-01-30T01:23:04;11.55;;;8.57;;
55762;SDS011;42162;51.958;5.426;2024-01-30T01:25:31;9.73;;;7.53;;
55762;SDS011;42162;51.958;5.426;2024-01-30T01:27:58;11.52;;;8.55;;
55762;SDS011;42162;51.958;5.426;2024-01-30T01:30:28;12.27;;;7.30;;
55762;SDS011;42162;51.958;5.426;2024-01-30T01:32:55;9.48;;;7.03;;
55762;SDS011;42162;51.958;5.426;2024-01-30T01:35:24;12.77;;;9.10;;
55762;SDS011;42162;51.958;5.426;2024-01-30T01:37:52;13.45;;;7.75;;
55762;SDS011;42162;51.958;5.426;2024-01-30T01:40:23;10.85;;;8.40;;
55762;SDS011;42162;51.958;5.426;2024-01-30T01:42:51;14.05;;;8.52;;
55762;SDS011;42162;51.958;5.426;2024-01-30T01:45:20;10.98;;;8.52;;
55762;SDS011;42162;51.958;5.426;2024-01-30T01:47:50;13.25;;;7.78;;
55762;SDS011;42162;51.958;5.426;2024-01-30T01:50:19;12.27;;;8.00;;
55762;SDS011;42162;51.958;5.426;2024-01-30T01:52:48;13.70;;;8.30;;
55762;SDS011;42162;51.958;5.426;2024-01-30T01:55:16;13.63;;;9.07;;
55762;SDS011;42162;51.958;5.426;2024-01-30T01:57:45;11.35;;;7.72;;
55762;SDS011;42162;51.958;5.426;2024-01-30T02:00:13;11.52;;;7.60;;
55762;SDS011;42162;51.958;5.426;2024-01-30T02:02:41;13.32;;;8.05;;
55762;SDS011;42162;51.958;5.426;2024-01-30T02:05:09;17.80;;;9.05;;
55762;SDS011;42162;51.958;5.426;2024-01-30T02:07:37;10.25;;;7.47;;
55762;SDS011;42162;51.958;5.426;2024-01-30T02:10:05;11.18;;;8.48;;
55762;SDS011;42162;51.958;5.426;2024-01-30T02:12:34;11.55;;;7.45;;
55762;SDS011;42162;51.958;5.426;2024-01-30T02:15:01;10.82;;;7.25;;
55762;SDS011;42162;51.958;5.426;2024-01-30T02:17:30;12.90;;;7.60;;
55762;SDS011;42162;51.958;5.426;2024-01-30T02:19:58;13.00;;;8.05;;
55762;SDS011;42162;51.958;5.426;2024-01-30T02:22:26;10.57;;;7.47;;
55762;SDS011;42162;51.958;5.426;2024-01-30T02:24:54;10.68;;;7.50;;
55762;SDS011;42162;51.958;5.426;2024-01-30T02:27:21;8.55;;;6.90;;
55762;SDS011;42162;51.958;5.426;2024-01-30T02:29:49;10.40;;;6.90;;
55762;SDS011;42162;51.958;5.426;2024-01-30T02:32:16;11.57;;;7.55;;
55762;SDS011;42162;51.958;5.426;2024-01-30T02:34:43;7.93;;;6.57;;
55762;SDS011;42162;51.958;5.426;2024-01-30T02:37:10;8.52;;;6.78;;
55762;SDS011;42162;51.958;5.426;2024-01-30T02:39:38;10.40;;;6.78;;
55762;SDS011;42162;51.958;5.426;2024-01-30T02:42:05;10.45;;;6.43;;
55762;SDS011;42162;51.958;5.426;2024-01-30T02:44:32;10.18;;;7.07;;
55762;SDS011;42162;51.958;5.426;2024-01-30T02:47:00;11.23;;;7.80;;
55762;SDS011;42162;51.958;5.426;2024-01-30T02:49:27;9.40;;;7.00;;
55762;SDS011;42162;51.958;5.426;2024-01-30T02:51:54;10.27;;;7.20;;
55762;SDS011;42162;51.958;5.426;2024-01-30T02:54:23;10.98;;;8.00;;
55762;SDS011;42162;51.958;5.426;2024-01-30T02:56:51;14.20;;;7.18;;
55762;SDS011;42162;51.958;5.426;2024-01-30T02:59:18;10.43;;;6.35;;
55762;SDS011;42162;51.958;5.426;2024-01-30T03:01:45;12.52;;;7.53;;
55762;SDS011;42162;51.958;5.426;2024-01-30T03:04:13;10.55;;;7.05;;
55762;SDS011;42162;51.958;5.426;2024-01-30T03:06:44;11.23;;;7.47;;
55762;SDS011;42162;51.958;5.426;2024-01-30T03:09:15;12.95;;;7.70;;
55762;SDS011;42162;51.958;5.426;2024-01-30T03:11:44;9.27;;;7.43;;
55762;SDS011;42162;51.958;5.426;2024-01-30T03:14:12;13.30;;;7.50;;
55762;SDS011;42162;51.958;5.426;2024-01-30T03:16:39;12.88;;;7.25;;
55762;SDS011;42162;51.958;5.426;2024-01-30T03:19:06;10.80;;;6.80;;
55762;SDS011;42162;51.958;5.426;2024-01-30T03:21:37;9.20;;;6.78;;
55762;SDS011;42162;51.958;5.426;2024-01-30T03:24:04;8.65;;;6.90;;
55762;SDS011;42162;51.958;5.426;2024-01-30T03:26:31;9.57;;;7.40;;
55762;SDS011;42162;51.958;5.426;2024-01-30T03:28:59;8.82;;;6.50;;
55762;SDS011;42162;51.958;5.426;2024-01-30T03:31:26;8.82;;;6.40;;
55762;SDS011;42162;51.958;5.426;2024-01-30T03:33:53;9.82;;;6.47;;
55762;SDS011;42162;51.958;5.426;2024-01-30T03:36:20;13.35;;;7.18;;
55762;SDS011;42162;51.958;5.426;2024-01-30T03:38:47;10.70;;;7.25;;
55762;SDS011;42162;51.958;5.426;2024-01-30T03:41:14;9.68;;;7.00;;
55762;SDS011;42162;51.958;5.426;2024-01-30T03:43:42;9.60;;;6.45;;
55762;SDS011;42162;51.958;5.426;2024-01-30T03:46:09;13.68;;;7.22;;
55762;SDS011;42162;51.958;5.426;2024-01-30T03:48:38;9.32;;;6.93;;
55762;SDS011;42162;51.958;5.426;2024-01-30T03:51:06;9.07;;;6.80;;
55762;SDS011;42162;51.958;5.426;2024-01-30T03:53:33;11.10;;;6.90;;
55762;SDS011;42162;51.958;5.426;2024-01-30T03:56:00;11.75;;;7.50;;
55762;SDS011;42162;51.958;5.426;2024-01-30T03:58:27;10.15;;;7.05;;
55762;SDS011;42162;51.958;5.426;2024-01-30T04:00:55;12.50;;;7.43;;
55762;SDS011;42162;51.958;5.426;2024-01-30T04:03:22;14.13;;;6.40;;
55762;SDS011;42162;51.958;5.426;2024-01-30T04:05:49;11.77;;;6.95;;
55762;SDS011;42162;51.958;5.426;2024-01-30T04:08:16;10.18;;;6.53;;
55762;SDS011;42162;51.958;5.426;2024-01-30T04:10:43;9.45;;;7.10;;
55762;SDS011;42162;51.958;5.426;2024-01-30T04:13:11;13.23;;;6.65;;
55762;SDS011;42162;51.958;5.426;2024-01-30T04:15:39;12.05;;;7.57;;
55762;SDS011;42162;51.958;5.426;2024-01-30T04:18:06;12.05;;;7.13;;
55762;SDS011;42162;51.958;5.426;2024-01-30T04:20:33;11.35;;;6.78;;
55762;SDS011;42162;51.958;5.426;2024-01-30T04:23:00;10.20;;;6.47;;
55762;SDS011;42162;51.958;5.426;2024-01-30T04:25:28;10.57;;;6.50;;
55762;SDS011;42162;51.958;5.426;2024-01-30T04:27:55;9.20;;;7.07;;
55762;SDS011;42162;51.958;5.426;2024-01-30T04:30:22;10.75;;;6.95;;
55762;SDS011;42162;51.958;5.426;2024-01-30T04:32:49;9.85;;;6.82;;
55762;SDS011;42162;51.958;5.426;2024-01-30T04:35:16;10.60;;;6.70;;
55762;SDS011;42162;51.958;5.426;2024-01-30T04:37:44;10.63;;;6.65;;
55762;SDS011;42162;51.958;5.426;2024-01-30T04:40:11;11.48;;;7.20;;
55762;SDS011;42162;51.958;5.426;2024-01-30T04:42:38;6.78;;;5.65;;
55762;SDS011;42162;51.958;5.426;2024-01-30T04:45:05;8.32;;;6.47;;
55762;SDS011;42162;51.958;5.426;2024-01-30T04:47:33;9.73;;;6.60;;
55762;SDS011;42162;51.958;5.426;2024-01-30T04:50:01;9.95;;;6.03;;
55762;SDS011;42162;51.958;5.426;2024-01-30T04:52:29;9.63;;;6.38;;
55762;SDS011;42162;51.958;5.426;2024-01-30T04:54:56;10.93;;;6.82;;
55762;SDS011;42162;51.958;5.426;2024-01-30T04:57:23;9.10;;;6.13;;
55762;SDS011;42162;51.958;5.426;2024-01-30T04:59:51;8.70;;;6.63;;
55762;SDS011;42162;51.958;5.426;2024-01-30T05:02:18;9.68;;;7.35;;
55762;SDS011;42162;51.958;5.426;2024-01-30T05:04:45;11.00;;;7.13;;
55762;SDS011;42162;51.958;5.426;2024-01-30T05:07:12;18.52;;;7.32;;
55762;SDS011;42162;51.958;5.426;2024-01-30T05:09:40;8.27;;;5.78;;
55762;SDS011;42162;51.958;5.426;2024-01-30T05:12:07;7.38;;;6.10;;
55762;SDS011;42162;51.958;5.426;2024-01-30T05:14:34;8.20;;;6.00;;
55762;SDS011;42162;51.958;5.426;2024-01-30T05:17:01;10.52;;;6.57;;
55762;SDS011;42162;51.958;5.426;2024-01-30T05:19:29;13.15;;;6.43;;
55762;SDS011;42162;51.958;5.426;2024-01-30T05:21:57;7.55;;;5.93;;
55762;SDS011;42162;51.958;5.426;2024-01-30T05:24:24;11.07;;;6.35;;
55762;SDS011;42162;51.958;5.426;2024-01-30T05:26:53;9.40;;;6.05;;
55762;SDS011;42162;51.958;5.426;2024-01-30T05:29:20;8.93;;;5.53;;
55762;SDS011;42162;51.958;5.426;2024-01-30T05:31:48;10.90;;;6.20;;
55762;SDS011;42162;51.958;5.426;2024-01-30T05:34:16;11.10;;;7.30;;
55762;SDS011;42162;51.958;5.426;2024-01-30T05:36:43;11.50;;;6.57;;
55762;SDS011;42162;51.958;5.426;2024-01-30T05:39:10;9.60;;;6.05;;
55762;SDS011;42162;51.958;5.426;2024-01-30T05:41:37;8.43;;;5.95;;
55762;SDS011;42162;51.958;5.426;2024-01-30T05:44:04;8.52;;;6.40;;
55762;SDS011;42162;51.958;5.426;2024-01-30T05:46:31;12.93;;;7.43;;
55762;SDS011;42162;51.958;5.426;2024-01-30T05:49:00;10.13;;;7.15;;
55762;SDS011;42162;51.958;5.426;2024-01-30T05:51:27;12.77;;;7.25;;
55762;SDS011;42162;51.958;5.426;2024-01-30T05:53:55;9.30;;;6.13;;
55762;SDS011;42162;51.958;5.426;2024-01-30T05:56:22;9.77;;;6.97;;
55762;SDS011;42162;51.958;5.426;2024-01-30T05:58:49;11.10;;;6.63;;
55762;SDS011;42162;51.958;5.426;2024-01-30T06:01:17;12.52;;;7.45;;
55762;SDS011;42162;51.958;5.426;2024-01-30T06:03:44;9.50;;;6.72;;
55762;SDS011;42162;51.958;5.426;2024-01-30T06:06:11;8.65;;;7.00;;
55762;SDS011;42162;51.958;5.426;2024-01-30T06:08:38;8.52;;;6.55;;
55762;SDS011;42162;51.958;5.426;2024-01-30T06:11:06;12.32;;;6.70;;
55762;SDS011;42162;51.958;5.426;2024-01-30T06:13:37;8.23;;;6.03;;
55762;SDS011;42162;51.958;5.426;2024-01-30T06:16:04;8.63;;;6.70;;
55762;SDS011;42162;51.958;5.426;2024-01-30T06:18:35;9.40;;;6.63;;
55762;SDS011;42162;51.958;5.426;2024-01-30T06:21:04;9.88;;;6.85;;
55762;SDS011;42162;51.958;5.426;2024-01-30T06:23:31;10.43;;;6.88;;
55762;SDS011;42162;51.958;5.426;2024-01-30T06:25:58;10.45;;;7.07;;
55762;SDS011;42162;51.958;5.426;2024-01-30T06:28:25;10.70;;;6.95;;
55762;SDS011;42162;51.958;5.426;2024-01-30T06:30:53;8.25;;;6.53;;
55762;SDS011;42162;51.958;5.426;2024-01-30T06:33:20;9.88;;;6.40;;
55762;SDS011;42162;51.958;5.426;2024-01-30T06:35:47;11.05;;;7.05;;
55762;SDS011;42162;51.958;5.426;2024-01-30T06:38:15;8.73;;;7.15;;
55762;SDS011;42162;51.958;5.426;2024-01-30T06:40:42;12.30;;;6.88;;
55762;SDS011;42162;51.958;5.426;2024-01-30T06:43:09;11.75;;;6.72;;
55762;SDS011;42162;51.958;5.426;2024-01-30T06:45:37;10.98;;;7.10;;
55762;SDS011;42162;51.958;5.426;2024-01-30T06:48:04;12.70;;;7.35;;
55762;SDS011;42162;51.958;5.426;2024-01-30T06:50:32;9.73;;;5.97;;
55762;SDS011;42162;51.958;5.426;2024-01-30T06:52:59;12.40;;;6.30;;
55762;SDS011;42162;51.958;5.426;2024-01-30T06:55:27;13.00;;;7.13;;
55762;SDS011;42162;51.958;5.426;2024-01-30T06:57:54;8.05;;;5.78;;
55762;SDS011;42162;51.958;5.426;2024-01-30T07:00:21;9.75;;;6.72;;
55762;SDS011;42162;51.958;5.426;2024-01-30T07:02:50;9.60;;;7.05;;
55762;SDS011;42162;51.958;5.426;2024-01-30T07:05:17;12.68;;;6.72;;
55762;SDS011;42162;51.958;5.426;2024-01-30T07:07:44;9.35;;;6.53;;
55762;SDS011;42162;51.958;5.426;2024-01-30T07:10:12;8.95;;;6.20;;
55762;SDS011;42162;51.958;5.426;2024-01-30T07:12:39;12.95;;;8.55;;
55762;SDS011;42162;51.958;5.426;2024-01-30T07:15:07;9.85;;;6.75;;
55762;SDS011;42162;51.958;5.426;2024-01-30T07:17:37;9.88;;;6.20;;
55762;SDS011;42162;51.958;5.426;2024-01-30T07:20:04;10.38;;;6.88;;
55762;SDS011;42162;51.958;5.426;2024-01-30T07:22:33;10.55;;;7.32;;
55762;SDS011;42162;51.958;5.426;2024-01-30T07:25:00;9.50;;;6.18;;
55762;SDS011;42162;51.958;5.426;2024-01-30T07:27:27;12.18;;;6.80;;
55762;SDS011;42162;51.958;5.426;2024-01-30T07:29:55;10.80;;;5.97;;
55762;SDS011;42162;51.958;5.426;2024-01-30T07:32:22;10.98;;;6.82;;
55762;SDS011;42162;51.958;5.426;2024-01-30T07:34:49;13.00;;;6.97;;
55762;SDS011;42162;51.958;5.426;2024-01-30T07:37:32;12.45;;;6.25;;
55762;SDS011;42162;51.958;5.426;2024-01-30T07:40:00;8.93;;;6.25;;
55762;SDS011;42162;51.958;5.426;2024-01-30T07:42:28;14.35;;;6.82;;
55762;SDS011;42162;51.958;5.426;2024-01-30T07:44:55;8.07;;;6.10;;
55762;SDS011;42162;51.958;5.426;2024-01-30T07:47:23;8.40;;;6.07;;
55762;SDS011;42162;51.958;5.426;2024-01-30T07:49:50;8.57;;;6.53;;
55762;SDS011;42162;51.958;5.426;2024-01-30T07:52:18;7.97;;;5.82;;
55762;SDS011;42162;51.958;5.426;2024-01-30T07:54:49;12.48;;;5.78;;
55762;SDS011;42162;51.958;5.426;2024-01-30T07:57:17;8.48;;;5.75;;
55762;SDS011;42162;51.958;5.426;2024-01-30T07:59:44;6.95;;;5.28;;
55762;SDS011;42162;51.958;5.426;2024-01-30T08:02:12;9.23;;;5.85;;
55762;SDS011;42162;51.958;5.426;2024-01-30T08:04:40;8.50;;;5.60;;
55762;SDS011;42162;51.958;5.426;2024-01-30T08:07:08;8.63;;;5.68;;
55762;SDS011;42162;51.958;5.426;2024-01-30T08:09:35;9.30;;;5.60;;
55762;SDS011;42162;51.958;5.426;2024-01-30T08:12:03;8.05;;;6.15;;
55762;SDS011;42162;51.958;5.426;2024-01-30T08:14:30;9.30;;;5.70;;
55762;SDS011;42162;51.958;5.426;2024-01-30T08:16:57;11.40;;;5.88;;
55762;SDS011;42162;51.958;5.426;2024-01-30T08:19:24;7.15;;;5.32;;
55762;SDS011;42162;51.958;5.426;2024-01-30T08:21:52;8.20;;;5.50;;
55762;SDS011;42162;51.958;5.426;2024-01-30T08:24:19;9.77;;;5.80;;
55762;SDS011;42162;51.958;5.426;2024-01-30T08:26:46;12.15;;;6.03;;
55762;SDS011;42162;51.958;5.426;2024-01-30T08:29:13;10.07;;;4.82;;
55762;SDS011;42162;51.958;5.426;2024-01-30T08:31:41;14.52;;;5.82;;
55762;SDS011;42162;51.958;5.426;2024-01-30T08:34:08;8.43;;;5.40;;
55762;SDS011;42162;51.958;5.426;2024-01-30T08:36:35;11.98;;;5.80;;
55762;SDS011;42162;51.958;5.426;2024-01-30T08:39:03;7.63;;;4.93;;
55762;SDS011;42162;51.958;5.426;2024-01-30T08:41:32;10.40;;;5.35;;
55762;SDS011;42162;51.958;5.426;2024-01-30T08:43:59;9.10;;;5.75;;
55762;SDS011;42162;51.958;5.426;2024-01-30T08:46:26;9.25;;;5.43;;
55762;SDS011;42162;51.958;5.426;2024-01-30T08:48:53;8.68;;;5.82;;
55762;SDS011;42162;51.958;5.426;2024-01-30T08:51:21;9.48;;;5.70;;
55762;SDS011;42162;51.958;5.426;2024-01-30T08:53:48;9.77;;;5.70;;
55762;SDS011;42162;51.958;5.426;2024-01-30T08:56:15;10.25;;;5.47;;
55762;SDS011;42162;51.958;5.426;2024-01-30T08:58:43;10.95;;;6.57;;
55762;SDS011;42162;51.958;5.426;2024-01-30T09:01:10;8.98;;;5.80;;
55762;SDS011;42162;51.958;5.426;2024-01-30T09:03:37;8.20;;;5.38;;
55762;SDS011;42162;51.958;5.426;2024-01-30T09:06:10;8.23;;;5.18;;
55762;SDS011;42162;51.958;5.426;2024-01-30T09:08:38;9.45;;;6.38;;
55762;SDS011;42162;51.958;5.426;2024-01-30T09:11:09;9.88;;;6.38;;
55762;SDS011;42162;51.958;5.426;2024-01-30T09:13:38;10.55;;;6.78;;
55762;SDS011;42162;51.958;5.426;2024-01-30T09:16:05;10.23;;;5.70;;
55762;SDS011;42162;51.958;5.426;2024-01-30T09:18:33;12.68;;;5.95;;
55762;SDS011;42162;51.958;5.426;2024-01-30T09:21:01;16.00;;;5.70;;
55762;SDS011;42162;51.958;5.426;2024-01-30T09:23:28;10.02;;;5.88;;
55762;SDS011;42162;51.958;5.426;2024-01-30T09:25:55;11.30;;;5.80;;
55762;SDS011;42162;51.958;5.426;2024-01-30T09:28:23;13.57;;;6.80;;
55762;SDS011;42162;51.958;5.426;2024-01-30T09:30:53;11.55;;;5.78;;
55762;SDS011;42162;51.958;5.426;2024-01-30T09:33:20;9.85;;;5.40;;
55762;SDS011;42162;51.958;5.426;2024-01-30T09:35:47;14.35;;;5.55;;
55762;SDS011;42162;51.958;5.426;2024-01-30T09:38:15;10.30;;;6.47;;
55762;SDS011;42162;51.958;5.426;2024-01-30T09:40:42;10.70;;;6.07;;
55762;SDS011;42162;51.958;5.426;2024-01-30T09:43:09;9.18;;;6.30;;
55762;SDS011;42162;51.958;5.426;2024-01-30T09:45:44;15.32;;;6.72;;
55762;SDS011;42162;51.958;5.426;2024-01-30T09:48:12;12.07;;;6.28;;
55762;SDS011;42162;51.958;5.426;2024-01-30T09:50:39;11.98;;;6.50;;
55762;SDS011;42162;51.958;5.426;2024-01-30T09:53:07;12.95;;;6.72;;
55762;SDS011;42162;51.958;5.426;2024-01-30T09:55:35;11.50;;;6.20;;
55762;SDS011;42162;51.958;5.426;2024-01-30T09:58:03;12.73;;;7.10;;
55762;SDS011;42162;51.958;5.426;2024-01-30T10:00:30;11.80;;;6.60;;
55762;SDS011;42162;51.958;5.426;2024-01-30T10:02:58;11.05;;;5.80;;
55762;SDS011;42162;51.958;5.426;2024-01-30T10:05:28;11.35;;;6.70;;
55762;SDS011;42162;51.958;5.426;2024-01-30T10:08:00;11.35;;;6.10;;
55762;SDS011;42162;51.958;5.426;2024-01-30T10:10:28;11.45;;;5.57;;
55762;SDS011;42162;51.958;5.426;2024-01-30T10:12:55;10.90;;;6.07;;
55762;SDS011;42162;51.958;5.426;2024-01-30T10:15:22;9.15;;;5.47;;
55762;SDS011;42162;51.958;5.426;2024-01-30T10:17:50;8.43;;;5.75;;
55762;SDS011;42162;51.958;5.426;2024-01-30T10:20:18;12.55;;;4.53;;
55762;SDS011;42162;51.958;5.426;2024-01-30T10:22:46;10.25;;;5.07;;
55762;SDS011;42162;51.958;5.426;2024-01-30T10:25:14;9.07;;;5.10;;
55762;SDS011;42162;51.958;5.426;2024-01-30T10:27:42;10.38;;;5.82;;
55762;SDS011;42162;51.958;5.426;2024-01-30T10:30:09;12.75;;;4.65;;
55762;SDS011;42162;51.958;5.426;2024-01-30T10:32:36;10.68;;;6.47;;
55762;SDS011;42162;51.958;5.426;2024-01-30T10:35:04;13.70;;;6.45;;
55762;SDS011;42162;51.958;5.426;2024-01-30T10:37:31;8.27;;;4.97;;
55762;SDS011;42162;51.958;5.426;2024-01-30T10:40:02;13.57;;;5.18;;
55762;SDS011;42162;51.958;5.426;2024-01-30T10:42:34;10.43;;;4.70;;
55762;SDS011;42162;51.958;5.426;2024-01-30T10:45:06;10.27;;;5.55;;
55762;SDS011;42162;51.958;5.426;2024-01-30T10:47:36;8.70;;;6.07;;
55762;SDS011;42162;51.958;5.426;2024-01-30T10:50:04;8.35;;;4.97;;
55762;SDS011;42162;51.958;5.426;2024-01-30T10:52:32;7.82;;;5.15;;
55762;SDS011;42162;51.958;5.426;2024-01-30T10:55:00;7.15;;;4.35;;
55762;SDS011;42162;51.958;5.426;2024-01-30T10:57:27;17.67;;;4.55;;
55762;SDS011;42162;51.958;5.426;2024-01-30T10:59:56;8.75;;;4.15;;
55762;SDS011;42162;51.958;5.426;2024-01-30T11:02:24;11.10;;;3.85;;
55762;SDS011;42162;51.958;5.426;2024-01-30T11:04:58;5.75;;;3.67;;
55762;SDS011;42162;51.958;5.426;2024-01-30T11:07:28;5.60;;;3.55;;
55762;SDS011;42162;51.958;5.426;2024-01-30T11:12:31;6.97;;;3.97;;
55762;SDS011;42162;51.958;5.426;2024-01-30T11:20:20;10.63;;;3.65;;
55762;SDS011;42162;51.958;5.426;2024-01-30T11:22:53;7.80;;;4.38;;
55762;SDS011;42162;51.958;5.426;2024-01-30T11:25:23;10.32;;;4.63;;
55762;SDS011;42162;51.958;5.426;2024-01-30T11:27:52;8.13;;;4.03;;
55762;SDS011;42162;51.958;5.426;2024-01-30T11:30:24;9.70;;;3.85;;
55762;SDS011;42162;51.958;5.426;2024-01-30T11:35:37;9.38;;;3.05;;
55762;SDS011;42162;51.958;5.426;2024-01-30T11:38:07;6.68;;;2.35;;
55762;SDS011;42162;51.958;5.426;2024-01-30T11:40:37;6.13;;;2.33;;
55762;SDS011;42162;51.958;5.426;2024-01-30T11:43:06;9.25;;;2.30;;
55762;SDS011;42162;51.958;5.426;2024-01-30T11:45:36;7.03;;;2.17;;
55762;SDS011;42162;51.958;5.426;2024-01-30T11:48:04;7.97;;;2.60;;
55762;SDS011;42162;51.958;5.426;2024-01-30T11:50:32;8.35;;;2.38;;
55762;SDS011;42162;51.958;5.426;2024-01-30T11:53:01;9.57;;;2.45;;
55762;SDS011;42162;51.958;5.426;2024-01-30T11:55:29;4.32;;;2.28;;
55762;SDS011;42162;51.958;5.426;2024-01-30T11:58:00;9.18;;;2.78;;
55762;SDS011;42162;51.958;5.426;2024-01-30T12:00:28;8.07;;;2.60;;
55762;SDS011;42162;51.958;5.426;2024-01-30T12:02:58;5.28;;;2.38;;
55762;SDS011;42162;51.958;5.426;2024-01-30T12:05:28;5.28;;;2.50;;
55762;SDS011;42162;51.958;5.426;2024-01-30T12:07:55;4.45;;;2.00;;
55762;SDS011;42162;51.958;5.426;2024-01-30T12:10:27;5.55;;;1.92;;
55762;SDS011;42162;51.958;5.426;2024-01-30T12:12:55;5.78;;;1.67;;
55762;SDS011;42162;51.958;5.426;2024-01-30T12:15:23;7.97;;;1.45;;
55762;SDS011;42162;51.958;5.426;2024-01-30T12:17:51;3.33;;;0.88;;
55762;SDS011;42162;51.958;5.426;2024-01-30T12:20:19;4.60;;;1.30;;
55762;SDS011;42162;51.958;5.426;2024-01-30T12:22:49;8.25;;;2.25;;
55762;SDS011;42162;51.958;5.426;2024-01-30T12:25:17;4.78;;;1.20;;
55762;SDS011;42162;51.958;5.426;2024-01-30T12:27:47;4.03;;;1.00;;
55762;SDS011;42162;51.958;5.426;2024-01-30T12:30:19;2.40;;;0.83;;
55762;SDS011;42162;51.958;5.426;2024-01-30T12:32:51;2.22;;;1.20;;
55762;SDS011;42162;51.958;5.426;2024-01-30T12:35:19;4.82;;;1.40;;
55762;SDS011;42162;51.958;5.426;2024-01-30T12:37:48;1.50;;;0.80;;
55762;SDS011;42162;51.958;5.426;2024-01-30T12:40:17;1.92;;;0.80;;
55762;SDS011;42162;51.958;5.426;2024-01-30T12:42:48;3.15;;;1.20;;
55762;SDS011;42162;51.958;5.426;2024-01-30T12:45:16;5.15;;;1.10;;
55762;SDS011;42162;51.958;5.426;2024-01-30T12:47:48;1.10;;;0.70;;
55762;SDS011;42162;51.958;5.426;2024-01-30T12:50:16;7.78;;;2.28;;
55762;SDS011;42162;51.958;5.426;2024-01-30T12:52:44;6.47;;;2.50;;
55762;SDS011;42162;51.958;5.426;2024-01-30T12:55:15;7.72;;;2.60;;
55762;SDS011;42162;51.958;5.426;2024-01-30T12:57:43;8.38;;;2.20;;
55762;SDS011;42162;51.958;5.426;2024-01-30T13:00:11;11.77;;;2.40;;
55762;SDS011;42162;51.958;5.426;2024-01-30T13:02:38;7.53;;;3.35;;
55762;SDS011;42162;51.958;5.426;2024-01-30T13:05:05;9.60;;;1.77;;
55762;SDS011;42162;51.958;5.426;2024-01-30T13:07:34;11.70;;;2.90;;
55762;SDS011;42162;51.958;5.426;2024-01-30T13:10:02;9.00;;;2.17;;
55762;SDS011;42162;51.958;5.426;2024-01-30T13:12:31;7.82;;;2.35;;
55762;SDS011;42162;51.958;5.426;2024-01-30T13:15:01;12.48;;;2.35;;
55762;SDS011;42162;51.958;5.426;2024-01-30T13:17:31;15.18;;;2.70;;
55762;SDS011;42162;51.958;5.426;2024-01-30T13:20:00;11.48;;;2.40;;
55762;SDS011;42162;51.958;5.426;2024-01-30T13:22:36;7.50;;;2.50;;
55762;SDS011;42162;51.958;5.426;2024-01-30T13:25:06;7.57;;;2.50;;
55762;SDS011;42162;51.958;5.426;2024-01-30T13:27:35;5.90;;;2.20;;
55762;SDS011;42162;51.958;5.426;2024-01-30T13:30:06;10.25;;;3.00;;
55762;SDS011;42162;51.958;5.426;2024-01-30T13:32:35;8.65;;;3.70;;
55762;SDS011;42162;51.958;5.426;2024-01-30T13:35:02;10.05;;;2.88;;
55762;SDS011;42162;51.958;5.426;2024-01-30T13:37:30;6.38;;;2.95;;
55762;SDS011;42162;51.958;5.426;2024-01-30T13:39:58;5.22;;;2.17;;
55762;SDS011;42162;51.958;5.426;2024-01-30T13:42:27;8.35;;;1.83;;
55762;SDS011;42162;51.958;5.426;2024-01-30T13:44:54;3.97;;;2.10;;
55762;SDS011;42162;51.958;5.426;2024-01-30T13:47:21;3.15;;;1.70;;
55762;SDS011;42162;51.958;5.426;2024-01-30T13:49:48;4.75;;;2.08;;
55762;SDS011;42162;51.958;5.426;2024-01-30T13:52:16;4.65;;;1.50;;
55762;SDS011;42162;51.958;5.426;2024-01-30T13:54:46;3.47;;;1.35;;
55762;SDS011;42162;51.958;5.426;2024-01-30T13:57:13;3.30;;;1.40;;
55762;SDS011;42162;51.958;5.426;2024-01-30T13:59:40;5.50;;;1.55;;
55762;SDS011;42162;51.958;5.426;2024-01-30T14:02:08;7.63;;;1.20;;
55762;SDS011;42162;51.958;5.426;2024-01-30T14:04:37;4.63;;;1.48;;
55762;SDS011;42162;51.958;5.426;2024-01-30T14:07:04;3.90;;;1.58;;
55762;SDS011;42162;51.958;5.426;2024-01-30T14:09:33;4.50;;;2.20;;
55762;SDS011;42162;51.958;5.426;2024-01-30T14:12:01;2.63;;;1.55;;
55762;SDS011;42162;51.958;5.426;2024-01-30T14:14:28;2.47;;;1.15;;
55762;SDS011;42162;51.958;5.426;2024-01-30T14:16:55;6.97;;;2.10;;
55762;SDS011;42162;51.958;5.426;2024-01-30T14:19:23;3.67;;;1.77;;
55762;SDS011;42162;51.958;5.426;2024-01-30T14:21:50;6.97;;;2.10;;
55762;SDS011;42162;51.958;5.426;2024-01-30T14:24:17;5.97;;;2.50;;
55762;SDS011;42162;51.958;5.426;2024-01-30T14:26:44;3.53;;;1.77;;
55762;SDS011;42162;51.958;5.426;2024-01-30T14:29:12;4.00;;;2.25;;
55762;SDS011;42162;51.958;5.426;2024-01-30T14:31:39;7.20;;;2.20;;
55762;SDS011;42162;51.958;5.426;2024-01-30T14:34:06;4.63;;;2.42;;
55762;SDS011;42162;51.958;5.426;2024-01-30T14:36:35;5.43;;;2.60;;
55762;SDS011;42162;51.958;5.426;2024-01-30T14:39:02;6.72;;;2.80;;
55762;SDS011;42162;51.958;5.426;2024-01-30T14:41:30;3.83;;;1.92;;
55762;SDS011;42162;51.958;5.426;2024-01-30T14:43:57;4.30;;;2.30;;
55762;SDS011;42162;51.958;5.426;2024-01-30T14:46:24;4.85;;;1.80;;
55762;SDS011;42162;51.958;5.426;2024-01-30T14:48:53;6.05;;;2.45;;
55762;SDS011;42162;51.958;5.426;2024-01-30T14:51:21;6.15;;;1.80;;
55762;SDS011;42162;51.958;5.426;2024-01-30T14:53:48;5.97;;;1.60;;
55762;SDS011;42162;51.958;5.426;2024-01-30T14:56:15;5.32;;;1.60;;